This is the latest recevied weather packets stored in our database for station/object KC9DRE. If no packets are shown the sender has not sent any weather packets the latest 10 day(s).
| Time | Temp. | Humidity | Pressure | Rain* | Wind** | Luminosity | Snow |
|---|---|---|---|---|---|---|---|
| 1787604956 | 25.56° C | 54% | 1018.6 hPa | 0 mm | - | 280 W/m² | - |
| 1787604655 | 26.11° C | 52% | 1018.6 hPa | 0 mm | - | 215 W/m² | - |
| 1787604355 | 26.11° C | 53% | 1018.6 hPa | 0 mm | - | 478 W/m² | - |
| 1787604051 | 26.11° C | 53% | 1018.5 hPa | 0 mm | - | 509 W/m² | - |
| 1787603750 | 26.11° C | 53% | 1018.5 hPa | 0 mm | - | 339 W/m² | - |
| 1787603446 | 26.11° C | 53% | 1018.8 hPa | 0 mm | - | 548 W/m² | - |
| 1787603142 | 26.67° C | 52% | 1018.7 hPa | 0 mm | - | 231 W/m² | - |
| 1787602838 | 26.67° C | 51% | 1018.7 hPa | 0 mm | - | 265 W/m² | - |
| 1787602538 | 27.78° C | 48% | 1019 hPa | 0 mm | - | 463 W/m² | - |
| 1787602233 | 27.22° C | 49% | 1018.9 hPa | 0 mm | - | 595 W/m² | - |
| 1787601932 | 26.67° C | 54% | 1019 hPa | 0 mm | - | 477 W/m² | - |
| 1787601628 | 27.78° C | 50% | 1018.9 hPa | 0 mm | - | 342 W/m² | - |
| 1787601323 | 27.78° C | 51% | 1018.9 hPa | 0 mm | - | 574 W/m² | - |
| 1787601021 | 28.33° C | 50% | 1018.9 hPa | 0 mm | - | 607 W/m² | - |
| 1787600717 | 29.44° C | 46% | 1019 hPa | 0 mm | - | 587 W/m² | - |
| 1787600412 | 28.89° C | 49% | 1019 hPa | 0 mm | - | 669 W/m² | - |
| 1787600108 | 28.33° C | 50% | 1019 hPa | 0 mm | - | 645 W/m² | - |
| 1787599804 | 27.78° C | 48% | 1019.1 hPa | 0 mm | - | 697 W/m² | - |
| 1787599500 | 27.78° C | 52% | 1019.2 hPa | 0 mm | - | 684 W/m² | - |
| 1787599196 | 27.78° C | 48% | 1019.2 hPa | 0 mm | - | 743 W/m² | - |
| 1787598891 | 27.78° C | 51% | 1019.4 hPa | 0 mm | - | 699 W/m² | - |
| 1787598588 | 26.67° C | 51% | 1019.3 hPa | 0 mm | - | 673 W/m² | - |
| 1787598287 | 26.11° C | 53% | 1019.4 hPa | 0 mm | - | 682 W/m² | - |
| 1787597983 | 26.67° C | 50% | 1019.4 hPa | 0 mm | - | 707 W/m² | - |
| 1787597684 | 27.22° C | 49% | 1019.2 hPa | 0 mm | - | 318 W/m² | - |
* Rain latest hour (hover to see other rain measurements)
** Current wind speed in m/s (hover to see current wind gust speed)